sensor_id;sensor_type;location;lat;lon;timestamp;P1;durP1;ratioP1;P2;durP2;ratioP2
55190;SDS011;41070;50.360;18.742;2024-02-21T00:03:46;30.00;;;11.00;;
55190;SDS011;41070;50.360;18.742;2024-02-21T00:06:54;36.70;;;13.60;;
55190;SDS011;41070;50.360;18.742;2024-02-21T00:10:13;59.90;;;20.40;;
55190;SDS011;41070;50.360;18.742;2024-02-21T00:13:32;26.50;;;9.70;;
55190;SDS011;41070;50.360;18.742;2024-02-21T00:16:13;13.80;;;5.60;;
55190;SDS011;41070;50.360;18.742;2024-02-21T00:22:14;14.60;;;6.60;;
55190;SDS011;41070;50.360;18.742;2024-02-21T00:25:18;17.10;;;8.50;;
55190;SDS011;41070;50.360;18.742;2024-02-21T00:31:19;26.00;;;12.20;;
55190;SDS011;41070;50.360;18.742;2024-02-21T00:37:32;15.00;;;5.90;;
55190;SDS011;41070;50.360;18.742;2024-02-21T00:43:34;11.70;;;5.30;;
55190;SDS011;41070;50.360;18.742;2024-02-21T00:46:34;13.40;;;4.30;;
55190;SDS011;41070;50.360;18.742;2024-02-21T00:49:52;12.30;;;4.30;;
55190;SDS011;41070;50.360;18.742;2024-02-21T00:52:58;11.40;;;4.90;;
55190;SDS011;41070;50.360;18.742;2024-02-21T00:59:17;9.00;;;4.20;;
55190;SDS011;41070;50.360;18.742;2024-02-21T01:14:26;12.00;;;3.60;;
55190;SDS011;41070;50.360;18.742;2024-02-21T01:17:44;9.60;;;3.30;;
55190;SDS011;41070;50.360;18.742;2024-02-21T01:30:30;9.30;;;3.60;;
55190;SDS011;41070;50.360;18.742;2024-02-21T01:36:55;7.30;;;3.30;;
55190;SDS011;41070;50.360;18.742;2024-02-21T01:39:41;10.40;;;4.10;;
55190;SDS011;41070;50.360;18.742;2024-02-21T01:45:30;8.30;;;3.40;;
55190;SDS011;41070;50.360;18.742;2024-02-21T01:48:40;9.40;;;3.80;;
55190;SDS011;41070;50.360;18.742;2024-02-21T01:54:47;10.90;;;3.90;;
55190;SDS011;41070;50.360;18.742;2024-02-21T02:03:53;9.20;;;3.10;;
55190;SDS011;41070;50.360;18.742;2024-02-21T02:06:44;9.40;;;3.40;;
55190;SDS011;41070;50.360;18.742;2024-02-21T02:10:02;9.60;;;3.50;;
55190;SDS011;41070;50.360;18.742;2024-02-21T02:22:07;7.20;;;3.00;;
55190;SDS011;41070;50.360;18.742;2024-02-21T02:50:16;8.80;;;4.10;;
55190;SDS011;41070;50.360;18.742;2024-02-21T02:53:00;13.60;;;6.20;;
55190;SDS011;41070;50.360;18.742;2024-02-21T02:59:19;13.20;;;4.70;;
55190;SDS011;41070;50.360;18.742;2024-02-21T03:02:11;12.30;;;5.00;;
55190;SDS011;41070;50.360;18.742;2024-02-21T03:05:01;12.10;;;5.00;;
55190;SDS011;41070;50.360;18.742;2024-02-21T03:11:16;10.50;;;4.50;;
55190;SDS011;41070;50.360;18.742;2024-02-21T03:14:22;10.10;;;4.60;;
55190;SDS011;41070;50.360;18.742;2024-02-21T03:17:10;11.40;;;4.80;;
55190;SDS011;41070;50.360;18.742;2024-02-21T03:20:06;12.50;;;4.70;;
55190;SDS011;41070;50.360;18.742;2024-02-21T03:23:12;13.70;;;4.70;;
55190;SDS011;41070;50.360;18.742;2024-02-21T03:26:04;12.50;;;5.30;;
55190;SDS011;41070;50.360;18.742;2024-02-21T03:38:15;10.70;;;4.80;;
55190;SDS011;41070;50.360;18.742;2024-02-21T03:41:31;9.10;;;4.10;;
55190;SDS011;41070;50.360;18.742;2024-02-21T03:47:24;12.30;;;5.00;;
55190;SDS011;41070;50.360;18.742;2024-02-21T04:02:44;9.20;;;3.80;;
55190;SDS011;41070;50.360;18.742;2024-02-21T04:12:35;16.50;;;4.60;;
55190;SDS011;41070;50.360;18.742;2024-02-21T04:15:26;10.80;;;4.30;;
55190;SDS011;41070;50.360;18.742;2024-02-21T04:18:20;7.90;;;3.60;;
55190;SDS011;41070;50.360;18.742;2024-02-21T04:21:03;9.10;;;4.10;;
55190;SDS011;41070;50.360;18.742;2024-02-21T04:24:23;11.10;;;4.20;;
55190;SDS011;41070;50.360;18.742;2024-02-21T04:27:09;11.20;;;4.70;;
55190;SDS011;41070;50.360;18.742;2024-02-21T04:30:20;7.30;;;3.80;;
55190;SDS011;41070;50.360;18.742;2024-02-21T04:33:00;8.50;;;3.90;;
55190;SDS011;41070;50.360;18.742;2024-02-21T04:46:04;8.20;;;4.70;;
55190;SDS011;41070;50.360;18.742;2024-02-21T04:52:28;11.30;;;4.60;;
55190;SDS011;41070;50.360;18.742;2024-02-21T04:55:36;10.60;;;3.80;;
55190;SDS011;41070;50.360;18.742;2024-02-21T04:58:40;10.40;;;4.60;;
55190;SDS011;41070;50.360;18.742;2024-02-21T05:01:56;10.60;;;4.50;;
55190;SDS011;41070;50.360;18.742;2024-02-21T05:08:04;10.10;;;4.30;;
55190;SDS011;41070;50.360;18.742;2024-02-21T05:11:20;12.80;;;5.10;;
55190;SDS011;41070;50.360;18.742;2024-02-21T05:14:31;12.00;;;4.60;;
55190;SDS011;41070;50.360;18.742;2024-02-21T05:20:57;12.90;;;4.80;;
55190;SDS011;41070;50.360;18.742;2024-02-21T05:26:45;8.30;;;4.40;;
55190;SDS011;41070;50.360;18.742;2024-02-21T05:29:11;13.40;;;6.10;;
55190;SDS011;41070;50.360;18.742;2024-02-21T05:34:19;14.80;;;7.00;;
55190;SDS011;41070;50.360;18.742;2024-02-21T05:36:46;18.60;;;8.10;;
55190;SDS011;41070;50.360;18.742;2024-02-21T05:39:13;17.10;;;6.30;;
55190;SDS011;41070;50.360;18.742;2024-02-21T05:41:40;15.60;;;7.10;;
55190;SDS011;41070;50.360;18.742;2024-02-21T05:44:06;14.30;;;6.80;;
55190;SDS011;41070;50.360;18.742;2024-02-21T05:49:00;12.80;;;6.00;;
55190;SDS011;41070;50.360;18.742;2024-02-21T05:51:27;11.50;;;6.10;;
55190;SDS011;41070;50.360;18.742;2024-02-21T05:56:19;11.70;;;6.10;;
55190;SDS011;41070;50.360;18.742;2024-02-21T05:58:46;13.80;;;6.10;;
55190;SDS011;41070;50.360;18.742;2024-02-21T06:03:38;10.20;;;5.20;;
55190;SDS011;41070;50.360;18.742;2024-02-21T06:06:05;15.50;;;6.20;;
55190;SDS011;41070;50.360;18.742;2024-02-21T06:10:58;9.50;;;5.30;;
55190;SDS011;41070;50.360;18.742;2024-02-21T06:15:52;13.40;;;6.70;;
55190;SDS011;41070;50.360;18.742;2024-02-21T06:18:19;13.30;;;7.10;;
55190;SDS011;41070;50.360;18.742;2024-02-21T06:20:46;16.20;;;7.50;;
55190;SDS011;41070;50.360;18.742;2024-02-21T06:23:14;12.00;;;6.10;;
55190;SDS011;41070;50.360;18.742;2024-02-21T06:25:42;13.30;;;7.70;;
55190;SDS011;41070;50.360;18.742;2024-02-21T06:28:09;15.80;;;7.90;;
55190;SDS011;41070;50.360;18.742;2024-02-21T06:30:35;14.70;;;6.60;;
55190;SDS011;41070;50.360;18.742;2024-02-21T06:33:02;16.50;;;8.30;;
55190;SDS011;41070;50.360;18.742;2024-02-21T06:35:28;11.90;;;6.50;;
55190;SDS011;41070;50.360;18.742;2024-02-21T06:40:21;21.00;;;8.40;;
55190;SDS011;41070;50.360;18.742;2024-02-21T06:42:49;12.40;;;7.90;;
55190;SDS011;41070;50.360;18.742;2024-02-21T06:45:16;12.00;;;6.80;;
55190;SDS011;41070;50.360;18.742;2024-02-21T06:47:42;12.60;;;6.50;;
55190;SDS011;41070;50.360;18.742;2024-02-21T06:50:09;12.80;;;6.40;;
55190;SDS011;41070;50.360;18.742;2024-02-21T06:52:36;12.40;;;7.30;;
55190;SDS011;41070;50.360;18.742;2024-02-21T06:55:02;14.30;;;7.00;;
55190;SDS011;41070;50.360;18.742;2024-02-21T06:57:29;13.00;;;7.20;;
55190;SDS011;41070;50.360;18.742;2024-02-21T06:59:56;16.90;;;8.10;;
55190;SDS011;41070;50.360;18.742;2024-02-21T07:02:23;12.00;;;6.20;;
55190;SDS011;41070;50.360;18.742;2024-02-21T07:04:49;14.30;;;7.40;;
55190;SDS011;41070;50.360;18.742;2024-02-21T07:09:42;16.00;;;6.90;;
55190;SDS011;41070;50.360;18.742;2024-02-21T07:12:08;14.60;;;6.90;;
55190;SDS011;41070;50.360;18.742;2024-02-21T07:14:35;15.20;;;7.70;;
55190;SDS011;41070;50.360;18.742;2024-02-21T07:17:17;14.90;;;7.80;;
55190;SDS011;41070;50.360;18.742;2024-02-21T07:22:10;17.00;;;8.80;;
55190;SDS011;41070;50.360;18.742;2024-02-21T07:24:37;14.80;;;7.70;;
55190;SDS011;41070;50.360;18.742;2024-02-21T07:27:03;20.90;;;8.80;;
55190;SDS011;41070;50.360;18.742;2024-02-21T07:29:30;15.00;;;8.50;;
55190;SDS011;41070;50.360;18.742;2024-02-21T07:31:57;13.90;;;7.60;;
55190;SDS011;41070;50.360;18.742;2024-02-21T07:34:23;16.20;;;8.20;;
55190;SDS011;41070;50.360;18.742;2024-02-21T07:36:52;17.40;;;8.60;;
55190;SDS011;41070;50.360;18.742;2024-02-21T07:39:19;17.20;;;8.70;;
55190;SDS011;41070;50.360;18.742;2024-02-21T07:44:12;15.80;;;8.30;;
55190;SDS011;41070;50.360;18.742;2024-02-21T07:46:38;16.00;;;8.70;;
55190;SDS011;41070;50.360;18.742;2024-02-21T07:49:05;14.10;;;7.90;;
55190;SDS011;41070;50.360;18.742;2024-02-21T07:51:31;14.50;;;7.20;;
55190;SDS011;41070;50.360;18.742;2024-02-21T07:53:57;15.40;;;7.70;;
55190;SDS011;41070;50.360;18.742;2024-02-21T07:56:27;20.70;;;9.80;;
55190;SDS011;41070;50.360;18.742;2024-02-21T07:58:53;17.80;;;9.50;;
55190;SDS011;41070;50.360;18.742;2024-02-21T08:03:46;17.90;;;8.90;;
55190;SDS011;41070;50.360;18.742;2024-02-21T08:06:13;17.20;;;8.10;;
55190;SDS011;41070;50.360;18.742;2024-02-21T08:08:40;19.50;;;9.20;;
55190;SDS011;41070;50.360;18.742;2024-02-21T08:11:06;22.10;;;9.10;;
55190;SDS011;41070;50.360;18.742;2024-02-21T08:15:59;11.90;;;6.70;;
55190;SDS011;41070;50.360;18.742;2024-02-21T08:18:25;17.50;;;9.30;;
55190;SDS011;41070;50.360;18.742;2024-02-21T08:20:52;20.70;;;8.50;;
55190;SDS011;41070;50.360;18.742;2024-02-21T08:23:18;16.60;;;7.90;;
55190;SDS011;41070;50.360;18.742;2024-02-21T08:25:45;18.70;;;8.80;;
55190;SDS011;41070;50.360;18.742;2024-02-21T08:28:12;14.60;;;8.10;;
55190;SDS011;41070;50.360;18.742;2024-02-21T08:30:39;15.40;;;8.60;;
55190;SDS011;41070;50.360;18.742;2024-02-21T08:33:09;24.40;;;10.70;;
55190;SDS011;41070;50.360;18.742;2024-02-21T08:35:36;14.00;;;7.30;;
55190;SDS011;41070;50.360;18.742;2024-02-21T08:38:02;23.30;;;9.70;;
55190;SDS011;41070;50.360;18.742;2024-02-21T08:40:29;18.90;;;7.40;;
55190;SDS011;41070;50.360;18.742;2024-02-21T08:42:55;16.30;;;8.60;;
55190;SDS011;41070;50.360;18.742;2024-02-21T08:47:48;20.30;;;8.40;;
55190;SDS011;41070;50.360;18.742;2024-02-21T08:50:14;14.10;;;8.70;;
55190;SDS011;41070;50.360;18.742;2024-02-21T08:52:41;20.00;;;9.20;;
55190;SDS011;41070;50.360;18.742;2024-02-21T08:55:08;17.50;;;7.80;;
55190;SDS011;41070;50.360;18.742;2024-02-21T09:02:41;22.70;;;8.90;;
55190;SDS011;41070;50.360;18.742;2024-02-21T09:05:09;19.60;;;7.80;;
55190;SDS011;41070;50.360;18.742;2024-02-21T09:07:35;17.70;;;7.70;;
55190;SDS011;41070;50.360;18.742;2024-02-21T09:10:01;19.80;;;8.80;;
55190;SDS011;41070;50.360;18.742;2024-02-21T09:12:28;16.70;;;8.20;;
55190;SDS011;41070;50.360;18.742;2024-02-21T09:14:55;18.10;;;8.40;;
55190;SDS011;41070;50.360;18.742;2024-02-21T09:17:21;16.50;;;7.30;;
55190;SDS011;41070;50.360;18.742;2024-02-21T09:19:48;14.80;;;6.80;;
55190;SDS011;41070;50.360;18.742;2024-02-21T09:22:14;16.80;;;6.70;;
55190;SDS011;41070;50.360;18.742;2024-02-21T09:27:07;16.40;;;7.80;;
55190;SDS011;41070;50.360;18.742;2024-02-21T09:29:34;15.60;;;7.80;;
55190;SDS011;41070;50.360;18.742;2024-02-21T09:32:01;15.60;;;7.70;;
55190;SDS011;41070;50.360;18.742;2024-02-21T09:34:29;12.80;;;7.10;;
55190;SDS011;41070;50.360;18.742;2024-02-21T09:37:05;17.00;;;8.60;;
55190;SDS011;41070;50.360;18.742;2024-02-21T09:39:31;16.40;;;6.60;;
55190;SDS011;41070;50.360;18.742;2024-02-21T09:44:26;13.50;;;6.40;;
55190;SDS011;41070;50.360;18.742;2024-02-21T09:47:02;14.80;;;7.10;;
55190;SDS011;41070;50.360;18.742;2024-02-21T09:49:30;14.80;;;6.30;;
55190;SDS011;41070;50.360;18.742;2024-02-21T09:52:02;12.70;;;6.10;;
55190;SDS011;41070;50.360;18.742;2024-02-21T09:54:30;15.70;;;7.30;;
55190;SDS011;41070;50.360;18.742;2024-02-21T09:56:56;14.20;;;6.90;;
55190;SDS011;41070;50.360;18.742;2024-02-21T10:01:50;14.80;;;6.80;;
55190;SDS011;41070;50.360;18.742;2024-02-21T10:04:17;15.60;;;6.10;;
55190;SDS011;41070;50.360;18.742;2024-02-21T10:06:44;16.80;;;7.00;;
55190;SDS011;41070;50.360;18.742;2024-02-21T10:12:11;15.30;;;5.90;;
55190;SDS011;41070;50.360;18.742;2024-02-21T10:14:38;12.40;;;6.60;;
55190;SDS011;41070;50.360;18.742;2024-02-21T10:17:04;11.30;;;5.30;;
55190;SDS011;41070;50.360;18.742;2024-02-21T10:19:35;14.80;;;6.40;;
55190;SDS011;41070;50.360;18.742;2024-02-21T10:22:02;13.10;;;6.80;;
55190;SDS011;41070;50.360;18.742;2024-02-21T10:24:32;12.60;;;6.40;;
55190;SDS011;41070;50.360;18.742;2024-02-21T10:27:03;12.70;;;5.60;;
55190;SDS011;41070;50.360;18.742;2024-02-21T10:29:31;13.60;;;5.40;;
55190;SDS011;41070;50.360;18.742;2024-02-21T10:32:04;11.30;;;4.60;;
55190;SDS011;41070;50.360;18.742;2024-02-21T10:34:32;12.00;;;4.60;;
55190;SDS011;41070;50.360;18.742;2024-02-21T10:39:28;11.30;;;4.40;;
55190;SDS011;41070;50.360;18.742;2024-02-21T10:41:56;9.90;;;4.50;;
55190;SDS011;41070;50.360;18.742;2024-02-21T10:44:27;11.90;;;5.10;;
55190;SDS011;41070;50.360;18.742;2024-02-21T10:46:54;11.40;;;4.60;;
55190;SDS011;41070;50.360;18.742;2024-02-21T10:49:23;9.50;;;4.10;;
55190;SDS011;41070;50.360;18.742;2024-02-21T10:51:52;13.30;;;4.80;;
55190;SDS011;41070;50.360;18.742;2024-02-21T10:57:07;8.80;;;4.20;;
55190;SDS011;41070;50.360;18.742;2024-02-21T10:59:37;11.00;;;4.00;;
55190;SDS011;41070;50.360;18.742;2024-02-21T11:02:04;11.00;;;4.70;;
55190;SDS011;41070;50.360;18.742;2024-02-21T11:04:31;10.90;;;5.00;;
55190;SDS011;41070;50.360;18.742;2024-02-21T11:07:02;12.60;;;4.30;;
55190;SDS011;41070;50.360;18.742;2024-02-21T11:09:31;8.90;;;3.90;;
55190;SDS011;41070;50.360;18.742;2024-02-21T11:11:58;10.30;;;3.90;;
55190;SDS011;41070;50.360;18.742;2024-02-21T11:14:26;10.60;;;3.80;;
55190;SDS011;41070;50.360;18.742;2024-02-21T11:16:53;7.60;;;4.00;;
55190;SDS011;41070;50.360;18.742;2024-02-21T11:21:49;9.00;;;3.20;;
55190;SDS011;41070;50.360;18.742;2024-02-21T11:24:29;7.70;;;3.60;;
55190;SDS011;41070;50.360;18.742;2024-02-21T11:29:47;9.40;;;3.30;;
55190;SDS011;41070;50.360;18.742;2024-02-21T11:32:19;11.50;;;3.70;;
55190;SDS011;41070;50.360;18.742;2024-02-21T11:34:53;9.80;;;3.90;;
55190;SDS011;41070;50.360;18.742;2024-02-21T11:37:28;7.80;;;3.40;;
55190;SDS011;41070;50.360;18.742;2024-02-21T11:39:55;10.60;;;3.70;;
55190;SDS011;41070;50.360;18.742;2024-02-21T11:42:22;12.10;;;4.20;;
55190;SDS011;41070;50.360;18.742;2024-02-21T11:44:51;9.10;;;4.40;;
55190;SDS011;41070;50.360;18.742;2024-02-21T11:47:18;11.40;;;3.70;;
55190;SDS011;41070;50.360;18.742;2024-02-21T11:49:45;7.10;;;3.60;;
55190;SDS011;41070;50.360;18.742;2024-02-21T11:52:14;9.00;;;3.40;;
55190;SDS011;41070;50.360;18.742;2024-02-21T11:54:42;8.80;;;3.20;;
55190;SDS011;41070;50.360;18.742;2024-02-21T11:59:44;10.60;;;3.50;;
55190;SDS011;41070;50.360;18.742;2024-02-21T12:02:11;10.70;;;3.80;;
55190;SDS011;41070;50.360;18.742;2024-02-21T12:04:39;8.10;;;3.50;;
55190;SDS011;41070;50.360;18.742;2024-02-21T12:07:06;9.40;;;4.40;;
55190;SDS011;41070;50.360;18.742;2024-02-21T12:09:33;9.00;;;4.10;;
55190;SDS011;41070;50.360;18.742;2024-02-21T12:12:01;9.90;;;3.80;;
55190;SDS011;41070;50.360;18.742;2024-02-21T12:14:29;9.60;;;4.20;;
55190;SDS011;41070;50.360;18.742;2024-02-21T12:16:56;10.10;;;3.90;;
55190;SDS011;41070;50.360;18.742;2024-02-21T12:19:23;9.60;;;4.10;;
55190;SDS011;41070;50.360;18.742;2024-02-21T12:21:49;8.90;;;3.80;;
55190;SDS011;41070;50.360;18.742;2024-02-21T12:26:49;8.50;;;3.80;;
55190;SDS011;41070;50.360;18.742;2024-02-21T12:29:16;9.00;;;4.10;;
55190;SDS011;41070;50.360;18.742;2024-02-21T12:31:42;11.70;;;4.00;;
55190;SDS011;41070;50.360;18.742;2024-02-21T12:34:09;6.70;;;2.70;;
55190;SDS011;41070;50.360;18.742;2024-02-21T12:39:06;11.60;;;4.30;;
55190;SDS011;41070;50.360;18.742;2024-02-21T12:41:34;12.20;;;3.60;;
55190;SDS011;41070;50.360;18.742;2024-02-21T12:44:04;9.30;;;3.60;;
55190;SDS011;41070;50.360;18.742;2024-02-21T12:46:35;11.40;;;3.90;;
55190;SDS011;41070;50.360;18.742;2024-02-21T12:49:02;12.90;;;4.50;;
55190;SDS011;41070;50.360;18.742;2024-02-21T12:51:29;10.60;;;4.30;;
55190;SDS011;41070;50.360;18.742;2024-02-21T12:53:58;9.90;;;4.50;;
55190;SDS011;41070;50.360;18.742;2024-02-21T12:56:34;7.10;;;3.30;;
55190;SDS011;41070;50.360;18.742;2024-02-21T12:59:21;9.60;;;3.50;;
55190;SDS011;41070;50.360;18.742;2024-02-21T13:01:48;12.40;;;3.50;;
55190;SDS011;41070;50.360;18.742;2024-02-21T13:06:41;9.10;;;3.90;;
55190;SDS011;41070;50.360;18.742;2024-02-21T13:11:36;10.40;;;4.40;;
55190;SDS011;41070;50.360;18.742;2024-02-21T13:14:03;7.60;;;3.90;;
55190;SDS011;41070;50.360;18.742;2024-02-21T13:18:56;8.50;;;4.40;;
55190;SDS011;41070;50.360;18.742;2024-02-21T13:21:22;10.80;;;5.10;;
55190;SDS011;41070;50.360;18.742;2024-02-21T13:26:15;11.10;;;4.50;;
55190;SDS011;41070;50.360;18.742;2024-02-21T13:31:10;13.70;;;5.70;;
55190;SDS011;41070;50.360;18.742;2024-02-21T13:36:03;16.90;;;5.70;;
55190;SDS011;41070;50.360;18.742;2024-02-21T13:38:29;14.10;;;5.50;;
55190;SDS011;41070;50.360;18.742;2024-02-21T13:40:56;8.60;;;4.80;;
55190;SDS011;41070;50.360;18.742;2024-02-21T13:43:22;15.00;;;6.10;;
55190;SDS011;41070;50.360;18.742;2024-02-21T13:45:55;10.20;;;5.60;;
55190;SDS011;41070;50.360;18.742;2024-02-21T13:48:23;13.20;;;5.50;;
55190;SDS011;41070;50.360;18.742;2024-02-21T13:50:50;13.20;;;6.10;;
55190;SDS011;41070;50.360;18.742;2024-02-21T13:53:16;13.60;;;5.30;;
55190;SDS011;41070;50.360;18.742;2024-02-21T13:55:44;14.80;;;5.50;;
55190;SDS011;41070;50.360;18.742;2024-02-21T13:58:11;15.80;;;6.70;;
55190;SDS011;41070;50.360;18.742;2024-02-21T14:00:37;12.80;;;5.80;;
55190;SDS011;41070;50.360;18.742;2024-02-21T14:05:30;16.50;;;6.20;;
55190;SDS011;41070;50.360;18.742;2024-02-21T14:10:23;19.90;;;5.90;;
55190;SDS011;41070;50.360;18.742;2024-02-21T14:12:50;17.20;;;6.90;;
55190;SDS011;41070;50.360;18.742;2024-02-21T14:15:16;13.10;;;5.80;;
55190;SDS011;41070;50.360;18.742;2024-02-21T14:20:09;15.70;;;6.70;;
55190;SDS011;41070;50.360;18.742;2024-02-21T14:22:36;10.90;;;5.60;;
55190;SDS011;41070;50.360;18.742;2024-02-21T14:25:03;17.60;;;6.40;;
55190;SDS011;41070;50.360;18.742;2024-02-21T14:27:31;19.30;;;7.00;;
55190;SDS011;41070;50.360;18.742;2024-02-21T14:29:58;13.10;;;5.90;;
55190;SDS011;41070;50.360;18.742;2024-02-21T14:32:24;20.70;;;7.40;;
55190;SDS011;41070;50.360;18.742;2024-02-21T14:34:51;17.00;;;6.30;;
55190;SDS011;41070;50.360;18.742;2024-02-21T14:39:43;11.50;;;5.50;;
55190;SDS011;41070;50.360;18.742;2024-02-21T14:44:36;13.70;;;5.70;;
55190;SDS011;41070;50.360;18.742;2024-02-21T14:47:03;12.90;;;7.00;;
55190;SDS011;41070;50.360;18.742;2024-02-21T14:49:30;16.20;;;6.20;;
55190;SDS011;41070;50.360;18.742;2024-02-21T14:51:58;15.30;;;6.30;;
55190;SDS011;41070;50.360;18.742;2024-02-21T14:54:25;11.00;;;4.80;;
55190;SDS011;41070;50.360;18.742;2024-02-21T14:56:52;14.20;;;6.40;;
55190;SDS011;41070;50.360;18.742;2024-02-21T14:59:31;12.70;;;5.90;;
55190;SDS011;41070;50.360;18.742;2024-02-21T15:02:01;16.50;;;6.70;;
55190;SDS011;41070;50.360;18.742;2024-02-21T15:06:54;13.40;;;5.10;;
55190;SDS011;41070;50.360;18.742;2024-02-21T15:09:20;11.80;;;5.00;;
55190;SDS011;41070;50.360;18.742;2024-02-21T15:14:13;18.10;;;5.50;;
55190;SDS011;41070;50.360;18.742;2024-02-21T15:16:39;19.40;;;7.30;;
55190;SDS011;41070;50.360;18.742;2024-02-21T15:19:05;11.90;;;5.20;;
55190;SDS011;41070;50.360;18.742;2024-02-21T15:21:33;17.80;;;6.50;;
55190;SDS011;41070;50.360;18.742;2024-02-21T15:24:00;13.00;;;6.10;;
55190;SDS011;41070;50.360;18.742;2024-02-21T15:26:27;11.00;;;6.10;;
55190;SDS011;41070;50.360;18.742;2024-02-21T15:28:55;14.60;;;6.70;;
55190;SDS011;41070;50.360;18.742;2024-02-21T15:31:22;19.40;;;7.00;;
55190;SDS011;41070;50.360;18.742;2024-02-21T15:33:52;13.10;;;5.80;;
55190;SDS011;41070;50.360;18.742;2024-02-21T15:36:19;15.30;;;6.40;;
55190;SDS011;41070;50.360;18.742;2024-02-21T15:38:46;13.50;;;5.20;;
55190;SDS011;41070;50.360;18.742;2024-02-21T15:41:12;14.50;;;7.00;;
55190;SDS011;41070;50.360;18.742;2024-02-21T15:43:54;20.70;;;6.10;;
55190;SDS011;41070;50.360;18.742;2024-02-21T15:46:26;15.20;;;6.30;;
55190;SDS011;41070;50.360;18.742;2024-02-21T15:48:52;14.00;;;5.40;;
55190;SDS011;41070;50.360;18.742;2024-02-21T15:51:20;17.30;;;5.80;;
55190;SDS011;41070;50.360;18.742;2024-02-21T15:53:47;10.90;;;4.70;;
55190;SDS011;41070;50.360;18.742;2024-02-21T15:56:16;16.80;;;6.10;;
55190;SDS011;41070;50.360;18.742;2024-02-21T15:58:42;17.90;;;6.80;;
55190;SDS011;41070;50.360;18.742;2024-02-21T16:03:37;24.90;;;8.70;;
55190;SDS011;41070;50.360;18.742;2024-02-21T16:06:04;27.10;;;8.00;;
55190;SDS011;41070;50.360;18.742;2024-02-21T16:11:04;21.10;;;7.90;;
55190;SDS011;41070;50.360;18.742;2024-02-21T16:13:31;21.30;;;8.30;;
55190;SDS011;41070;50.360;18.742;2024-02-21T16:15:58;23.70;;;8.90;;
55190;SDS011;41070;50.360;18.742;2024-02-21T16:18:24;24.50;;;9.20;;
55190;SDS011;41070;50.360;18.742;2024-02-21T16:23:21;19.70;;;7.30;;
55190;SDS011;41070;50.360;18.742;2024-02-21T16:28:14;23.00;;;8.40;;
55190;SDS011;41070;50.360;18.742;2024-02-21T16:30:41;15.90;;;7.50;;
55190;SDS011;41070;50.360;18.742;2024-02-21T16:33:08;27.50;;;10.20;;
55190;SDS011;41070;50.360;18.742;2024-02-21T16:35:35;48.30;;;14.80;;
55190;SDS011;41070;50.360;18.742;2024-02-21T16:38:03;44.50;;;12.90;;
55190;SDS011;41070;50.360;18.742;2024-02-21T16:40:30;41.80;;;12.70;;
55190;SDS011;41070;50.360;18.742;2024-02-21T16:42:59;36.30;;;11.70;;
55190;SDS011;41070;50.360;18.742;2024-02-21T16:45:28;29.50;;;9.90;;
55190;SDS011;41070;50.360;18.742;2024-02-21T16:50:21;31.60;;;10.30;;
55190;SDS011;41070;50.360;18.742;2024-02-21T16:52:48;24.20;;;8.50;;
55190;SDS011;41070;50.360;18.742;2024-02-21T16:55:16;20.50;;;8.30;;
55190;SDS011;41070;50.360;18.742;2024-02-21T16:57:43;22.20;;;9.00;;
55190;SDS011;41070;50.360;18.742;2024-02-21T17:05:09;19.50;;;6.80;;
55190;SDS011;41070;50.360;18.742;2024-02-21T17:07:51;15.80;;;6.20;;
55190;SDS011;41070;50.360;18.742;2024-02-21T17:10:18;13.80;;;7.00;;
55190;SDS011;41070;50.360;18.742;2024-02-21T17:12:44;16.80;;;7.80;;
55190;SDS011;41070;50.360;18.742;2024-02-21T17:15:11;16.60;;;6.60;;
55190;SDS011;41070;50.360;18.742;2024-02-21T17:17:39;22.20;;;9.70;;
55190;SDS011;41070;50.360;18.742;2024-02-21T17:20:07;22.30;;;8.80;;
55190;SDS011;41070;50.360;18.742;2024-02-21T17:22:35;21.50;;;7.80;;
55190;SDS011;41070;50.360;18.742;2024-02-21T17:25:27;20.10;;;9.10;;
55190;SDS011;41070;50.360;18.742;2024-02-21T17:27:53;15.50;;;7.40;;
55190;SDS011;41070;50.360;18.742;2024-02-21T17:30:23;18.30;;;6.90;;
55190;SDS011;41070;50.360;18.742;2024-02-21T17:32:49;15.50;;;8.20;;
55190;SDS011;41070;50.360;18.742;2024-02-21T17:35:16;21.20;;;8.70;;
55190;SDS011;41070;50.360;18.742;2024-02-21T17:40:35;20.70;;;8.10;;
55190;SDS011;41070;50.360;18.742;2024-02-21T17:43:01;25.00;;;8.30;;
55190;SDS011;41070;50.360;18.742;2024-02-21T17:45:49;16.50;;;8.80;;
55190;SDS011;41070;50.360;18.742;2024-02-21T17:48:16;20.40;;;8.80;;
55190;SDS011;41070;50.360;18.742;2024-02-21T17:50:42;17.80;;;7.40;;
55190;SDS011;41070;50.360;18.742;2024-02-21T17:53:12;21.40;;;8.30;;
55190;SDS011;41070;50.360;18.742;2024-02-21T17:55:59;20.00;;;8.70;;
55190;SDS011;41070;50.360;18.742;2024-02-21T17:58:26;18.20;;;7.90;;
55190;SDS011;41070;50.360;18.742;2024-02-21T18:03:23;18.90;;;8.70;;
55190;SDS011;41070;50.360;18.742;2024-02-21T18:05:56;30.10;;;11.10;;
55190;SDS011;41070;50.360;18.742;2024-02-21T18:08:32;18.90;;;9.00;;
55190;SDS011;41070;50.360;18.742;2024-02-21T18:13:25;20.00;;;10.10;;
55190;SDS011;41070;50.360;18.742;2024-02-21T18:16:03;22.20;;;9.10;;
55190;SDS011;41070;50.360;18.742;2024-02-21T18:18:30;17.60;;;7.80;;
55190;SDS011;41070;50.360;18.742;2024-02-21T18:20:57;17.80;;;8.10;;
55190;SDS011;41070;50.360;18.742;2024-02-21T18:23:24;20.30;;;8.50;;
55190;SDS011;41070;50.360;18.742;2024-02-21T18:26:12;21.10;;;8.30;;
55190;SDS011;41070;50.360;18.742;2024-02-21T18:28:40;22.20;;;7.70;;
55190;SDS011;41070;50.360;18.742;2024-02-21T18:31:07;18.60;;;8.10;;
55190;SDS011;41070;50.360;18.742;2024-02-21T18:33:34;20.00;;;8.00;;
55190;SDS011;41070;50.360;18.742;2024-02-21T18:38:27;17.50;;;7.80;;
55190;SDS011;41070;50.360;18.742;2024-02-21T18:40:55;16.10;;;7.40;;
55190;SDS011;41070;50.360;18.742;2024-02-21T18:43:22;21.50;;;8.80;;
55190;SDS011;41070;50.360;18.742;2024-02-21T18:45:48;19.20;;;8.60;;
55190;SDS011;41070;50.360;18.742;2024-02-21T18:48:15;21.60;;;8.70;;
55190;SDS011;41070;50.360;18.742;2024-02-21T18:50:42;19.10;;;7.70;;
55190;SDS011;41070;50.360;18.742;2024-02-21T18:53:10;17.90;;;8.20;;
55190;SDS011;41070;50.360;18.742;2024-02-21T18:55:36;20.50;;;8.60;;
55190;SDS011;41070;50.360;18.742;2024-02-21T18:58:03;18.90;;;9.10;;
55190;SDS011;41070;50.360;18.742;2024-02-21T19:00:30;19.60;;;8.60;;
55190;SDS011;41070;50.360;18.742;2024-02-21T19:02:59;30.70;;;7.80;;
55190;SDS011;41070;50.360;18.742;2024-02-21T19:05:34;15.40;;;6.30;;
55190;SDS011;41070;50.360;18.742;2024-02-21T19:08:31;14.10;;;6.60;;
55190;SDS011;41070;50.360;18.742;2024-02-21T19:12:29;19.20;;;9.40;;
55190;SDS011;41070;50.360;18.742;2024-02-21T19:15:18;23.90;;;8.40;;
55190;SDS011;41070;50.360;18.742;2024-02-21T19:18:27;17.40;;;7.40;;
55190;SDS011;41070;50.360;18.742;2024-02-21T19:20:58;20.80;;;8.40;;
55190;SDS011;41070;50.360;18.742;2024-02-21T19:24:45;21.70;;;8.20;;
55190;SDS011;41070;50.360;18.742;2024-02-21T19:27:14;23.10;;;8.80;;
55190;SDS011;41070;50.360;18.742;2024-02-21T19:29:55;22.30;;;9.00;;
55190;SDS011;41070;50.360;18.742;2024-02-21T19:32:25;28.10;;;9.60;;
55190;SDS011;41070;50.360;18.742;2024-02-21T19:35:18;28.70;;;11.00;;
55190;SDS011;41070;50.360;18.742;2024-02-21T19:38:28;20.30;;;8.60;;
55190;SDS011;41070;50.360;18.742;2024-02-21T19:41:58;20.50;;;7.60;;